logo
Search for airport 
image banner adimage banner adimage banner ad
image banner ad

LSZN - Hausen Am Albis

Located in Zug, Switzerland

ICAO - LSZN, IATA -

Data provided by Airmate  

General information

Coordinates: N47°14'20" E8°30'56"
Elevation is 1928 feet MSL.
Magnetic variation is 2.718° East
View others Airports in Zurich

Operational data

Special qualification required
Current time UTC:
Current local time:
Weather at : LSMD - Dubendorf ( 20 km )
METAR: LSMD 191620Z AUTO 28007KT 240V020 9999NDV -RA BKN019 05/03 Q1014 RERA RMK
View NOTAMs / SUP AIP / TFR affecting this airport [VIEW]
Communications frequencies: [VIEW]

Runways:

RWY identifierQFULength (ft)Width (ft)SurfaceLDA (ft)
0991°229798GRASS
27271°229759ASPH
27 G229798GRASS

Airport contact information

Address: Zug Switzerland

Other aviation service providers

Aviation club (not for profit)

Albis Wings

Albis Wings
nfo@albiswings.ch+41797398121

Flieger-Schule Hausen Am Albis

Flieger-Schule Hausen Am Albis
info@fliegerschule.ch+41447766168
+41763770088

Segelfluggruppe Möve

Segelfluggruppe Möve

Swiss Flying Club

Swiss Flying Club
info@swissflyingclub.ch+41445001156
+41786818108

Satellite view of LSZN